Flight Track Log - Related Links

Times and Time Zones

All times are in EDT time to prevent confusion due to time zone crossing. See the SWA3121 flight status page for this flight to view local times or setup timezone preferences in your user account.

Time Position Orientation Groundspeed Altitude Reporting Facility
EDT Latitude Longitude Course Direction KTS MPH feet Rate Location/Type
Thu 11:38:37 PM 29.6333 -95.2653 108° East 146 168 800  Level Houston Center
Thu 11:38:56 PM 29.6311 -95.2572 108° East 115 132 1,300 1,800 Climbing Houston Center
Thu 11:39:57 PM 29.6792 -95.2458 12° North 253 291 3,200 2,066 Climbing Houston Center
Thu 11:40:58 PM 29.7478 -95.2814 336° Northwest 265 305 5,500 2,678 Climbing Houston Center
Thu 11:41:58 PM 29.8242 -95.3161 338° Northwest 288 331 8,600 2,777 Climbing Houston Center
Thu 11:42:59 PM 29.9022 -95.3539 337° Northwest 299 344 11,100 2,607 Climbing Houston Center
Thu 11:44:00 PM 29.9931 -95.3969 338° Northwest 338 389 13,900 3,000 Climbing Houston Center
Thu 11:45:01 PM 30.0886 -95.4414 338° Northwest 367 422 17,200 3,074 Climbing Houston Center
Thu 11:46:01 PM 30.1869 -95.4886 337° Northwest 379 436 20,100 2,777 Climbing Houston Center
Thu 11:47:02 PM 30.2889 -95.5358 338° Northwest 389 448 22,800 2,705 Climbing Houston Center
Thu 11:48:03 PM 30.4139 -95.5964 337° Northwest 405 466 25,600 2,430 Climbing Houston Center
Thu 11:49:03 PM 30.5217 -95.6464 338° Northwest 416 479 27,700 1,983 Climbing Houston Center
Thu 11:50:04 PM 30.6339 -95.7033 336° Northwest 433 498 29,600 1,918 Climbing Houston Center
Thu 11:51:05 PM 30.7422 -95.7633 335° Northwest 432 497 31,600 1,918 Climbing Houston Center
Thu 11:52:06 PM 30.8528 -95.8225 335° Northwest 433 498 33,500 1,983 Climbing Houston Center
Thu 11:53:06 PM 30.9603 -95.8806 335° Northwest 429 494 35,600 1,835 Climbing Houston Center
Thu 11:54:07 PM 31.0672 -95.9372 336° Northwest 424 488 37,200 1,550 Climbing Houston Center
Thu 11:55:06 PM 31.1822 -95.9856 340° North 421 484 38,700 1,361 Climbing Fort Worth Center
Thu 11:56:06 PM 31.2914 -96.0325 340° North 416 479 39,900 650 Climbing Fort Worth Center
Thu 11:57:06 PM 31.4025 -96.0722 343° North 408 470 40,000 50 Climbing Fort Worth Center
Thu 11:58:06 PM 31.5114 -96.1144 342° North 414 476 40,000  Level Fort Worth Center
Thu 11:59:06 PM 31.6081 -96.1572 339° North 414 476 40,000  Level Fort Worth Center
Fri 12:00:06 AM 31.7189 -96.1972 343° North 409 471 40,000  Level Fort Worth Center
Fri 12:01:06 AM 31.8281 -96.2444 340° North 409 471 40,000  Level Fort Worth Center
Fri 12:02:06 AM 31.9347 -96.2847 342° North 409 471 40,000  Level Fort Worth Center
Fri 12:03:06 AM 32.0436 -96.3253 342° North 409 471 40,000  Level Fort Worth Center
Fri 12:04:06 AM 32.1528 -96.3706 341° North 409 471 40,000  Level Fort Worth Center
Fri 12:05:06 AM 32.2617 -96.4111 343° North 409 471 40,000  Level Fort Worth Center
Fri 12:06:06 AM 32.3808 -96.4564 342° North 409 471 40,000  Level Fort Worth Center
Fri 12:07:06 AM 32.4919 -96.4972 343° North 409 471 40,000  Level Fort Worth Center
Fri 12:08:06 AM 32.6028 -96.5403 342° North 414 476 40,000  Level Fort Worth Center
Fri 12:09:06 AM 32.7139 -96.5839 342° North 414 476 40,000  Level Fort Worth Center
Fri 12:10:06 AM 32.8247 -96.6247 343° North 414 476 40,000  Level Fort Worth Center
Fri 12:11:06 AM 32.9333 -96.6658 342° North 414 476 40,000  Level Fort Worth Center
Fri 12:12:06 AM 33.0422 -96.7097 341° North 409 471 40,000  Level Fort Worth Center
Fri 12:13:06 AM 33.1511 -96.7508 342° North 409 471 40,000  Level Fort Worth Center
Fri 12:14:06 AM 33.2597 -96.7950 341° North 409 471 40,000  Level Fort Worth Center
Fri 12:15:06 AM 33.3686 -96.8339 343° North 404 465 40,000  Level Fort Worth Center
Fri 12:16:06 AM 33.4753 -96.8781 341° North 404 465 40,000  Level Fort Worth Center
Fri 12:17:06 AM 33.5839 -96.9197 342° North 409 471 40,000  Level Fort Worth Center
Fri 12:18:06 AM 33.6925 -96.9642 341° North 409 471 40,000 -1,000 Level Fort Worth Center
Fri 12:19:06 AM 33.7969 -97.0036 343° North 402 463 38,000 -2,400 Descending Fort Worth Center
Fri 12:20:06 AM 33.9058 -97.0481 341° North 402 463 35,200 -2,750 Descending Fort Worth Center
Fri 12:21:06 AM 34.0017 -97.0853 342° North 413 475 32,500 -3,000 Descending Fort Worth Center
Fri 12:22:06 AM 34.1125 -97.1325 341° North 420 483 29,200 -3,000 Descending Fort Worth Center
Fri 12:23:06 AM 34.2253 -97.1747 343° North 414 476 26,500 -2,650 Descending Fort Worth Center
Fri 12:24:06 AM 34.3422 -97.1947 352° North 414 476 23,900 -2,600 Descending Fort Worth Center
Fri 12:25:06 AM 34.4550 -97.2119 353° North 414 476 21,300 -2,500 Descending Fort Worth Center
Fri 12:26:06 AM 34.5633 -97.2319 351° North 402 463 18,900 -2,400 Descending Fort Worth Center
Fri 12:27:06 AM 34.6697 -97.2494 352° North 397 457 16,500 -2,617 Descending Fort Worth Center
Fri 12:27:40 AM 34.7408 -97.2619 352° North 380 437 14,800 -2,500 Descending Fort Worth Center
Fri 12:28:06 AM 34.7761 -97.2694 350° North 386 444 14,000 -2,571 Descending Fort Worth Center
Fri 12:28:29 AM 34.8283 -97.2769 353° North 382 440 12,700 -2,500 Descending Fort Worth Center
Fri 12:29:06 AM 34.8806 -97.2894 349° North 386 444 11,500 -2,000 Descending Fort Worth Center
Fri 12:29:23 AM 34.9161 -97.3147 330° Northwest 369 425 10,900 -1,200 Descending Fort Worth Center
Fri 12:30:06 AM 34.9661 -97.3450 334° Northwest 371 427 10,300 -689 Descending Fort Worth Center
Fri 12:30:24 AM 34.9994 -97.3678 331° Northwest 319 367 10,200 -800 Descending Fort Worth Center
Fri 12:31:06 AM 35.0369 -97.3958 329° Northwest 330 380 9,500 -1,300 Descending Fort Worth Center
Fri 12:31:24 AM 35.0706 -97.4161 334° Northwest 285 328 8,900 -1,500 Descending Fort Worth Center
Fri 12:32:06 AM 35.1081 -97.4467 326° Northwest 306 352 8,000 -1,574 Descending Fort Worth Center
Fri 12:32:25 AM 35.1433 -97.4542 350° North 293 337 7,300 -1,500 Descending Fort Worth Center
Fri 12:33:06 AM 35.1914 -97.4669 348° North 292 336 6,500 -1,475 Descending Fort Worth Center
Fri 12:33:26 AM 35.2247 -97.4769 346° North 296 341 5,800 -1,700 Descending Fort Worth Center
Fri 12:34:06 AM 35.2706 -97.4872 350° North 292 336 4,800 -1,600 Descending Fort Worth Center
Fri 12:34:26 AM 35.3039 -97.5000 343° North 298 343 4,200 -1,400 Descending Fort Worth Center
Fri 12:35:06 AM 35.3542 -97.5078 353° North 292 336 3,400 -1,180 Descending Fort Worth Center
Fri 12:35:27 AM 35.3875 -97.5128 353° North 296 341 3,000 -400 Descending Fort Worth Center
Fri 12:36:06 AM 35.4311 -97.5283 344° North 291 335 3,000  Level Fort Worth Center
Fri 12:36:27 AM 35.4561 -97.5383 342° North 219 252 3,000 -500 Level Fort Worth Center
Fri 12:37:06 AM 35.4769 -97.5564 325° Northwest 260 299 2,500 -492 Descending Fort Worth Center
Fri 12:37:28 AM 35.4686 -97.5742 240° Southwest 123 142 2,500 -200 Level Fort Worth Center
Fri 12:38:06 AM 35.4561 -97.5844 214° Southwest 99 114 2,300 -492 Descending Fort Worth Center
Fri 12:38:29 AM 35.4394 -97.5919 200° South 114 131 2,000 -700 Descending Fort Worth Center
Fri 12:39:06 AM 35.4228 -97.5919 180° South 74 85 1,600 -495 Descending Fort Worth Center
Fri 12:40:06 AM 35.3936 -97.6019 196° South 92 106 1,200 -400 Descending Fort Worth Center

Login

Don't have an account? Register now (free) for customized features, flight alerts, and more!